sensor_id;sensor_type;location;lat;lon;timestamp;P1;durP1;ratioP1;P2;durP2;ratioP2
7383;SDS011;3733;47.994;8.820;2022-11-06T00:00:52;131.87;;;11.50;;
7383;SDS011;3733;47.994;8.820;2022-11-06T00:03:18;32.13;;;8.63;;
7383;SDS011;3733;47.994;8.820;2022-11-06T00:05:44;23.67;;;7.97;;
7383;SDS011;3733;47.994;8.820;2022-11-06T00:08:29;15.80;;;8.60;;
7383;SDS011;3733;47.994;8.820;2022-11-06T00:10:57;35.83;;;9.07;;
7383;SDS011;3733;47.994;8.820;2022-11-06T00:13:23;65.53;;;9.23;;
7383;SDS011;3733;47.994;8.820;2022-11-06T00:15:49;12.57;;;7.20;;
7383;SDS011;3733;47.994;8.820;2022-11-06T00:18:15;14.83;;;7.33;;
7383;SDS011;3733;47.994;8.820;2022-11-06T00:20:40;32.67;;;7.77;;
7383;SDS011;3733;47.994;8.820;2022-11-06T00:23:06;17.03;;;7.60;;
7383;SDS011;3733;47.994;8.820;2022-11-06T00:25:31;14.77;;;7.00;;
7383;SDS011;3733;47.994;8.820;2022-11-06T00:27:57;21.60;;;7.10;;
7383;SDS011;3733;47.994;8.820;2022-11-06T00:30:23;12.00;;;6.73;;
7383;SDS011;3733;47.994;8.820;2022-11-06T00:32:49;56.90;;;8.33;;
7383;SDS011;3733;47.994;8.820;2022-11-06T00:35:15;18.90;;;6.70;;
7383;SDS011;3733;47.994;8.820;2022-11-06T00:37:40;12.80;;;7.37;;
7383;SDS011;3733;47.994;8.820;2022-11-06T00:40:06;15.30;;;6.43;;
7383;SDS011;3733;47.994;8.820;2022-11-06T00:42:32;18.87;;;7.10;;
7383;SDS011;3733;47.994;8.820;2022-11-06T00:44:58;11.60;;;7.07;;
7383;SDS011;3733;47.994;8.820;2022-11-06T00:47:23;48.87;;;7.87;;
7383;SDS011;3733;47.994;8.820;2022-11-06T00:49:49;26.20;;;7.27;;
7383;SDS011;3733;47.994;8.820;2022-11-06T00:52:15;13.70;;;7.53;;
7383;SDS011;3733;47.994;8.820;2022-11-06T00:54:40;31.27;;;7.37;;
7383;SDS011;3733;47.994;8.820;2022-11-06T00:57:06;58.77;;;8.43;;
7383;SDS011;3733;47.994;8.820;2022-11-06T00:59:32;85.10;;;9.30;;
7383;SDS011;3733;47.994;8.820;2022-11-06T01:01:57;21.83;;;7.50;;
7383;SDS011;3733;47.994;8.820;2022-11-06T01:04:24;27.73;;;7.20;;
7383;SDS011;3733;47.994;8.820;2022-11-06T01:06:51;18.83;;;7.50;;
7383;SDS011;3733;47.994;8.820;2022-11-06T01:09:19;27.17;;;7.53;;
7383;SDS011;3733;47.994;8.820;2022-11-06T01:11:47;17.70;;;7.20;;
7383;SDS011;3733;47.994;8.820;2022-11-06T01:14:15;19.67;;;7.57;;
7383;SDS011;3733;47.994;8.820;2022-11-06T01:16:42;15.17;;;6.60;;
7383;SDS011;3733;47.994;8.820;2022-11-06T01:19:09;37.10;;;8.97;;
7383;SDS011;3733;47.994;8.820;2022-11-06T01:21:37;11.40;;;6.83;;
7383;SDS011;3733;47.994;8.820;2022-11-06T01:24:09;35.13;;;8.50;;
7383;SDS011;3733;47.994;8.820;2022-11-06T01:26:36;41.23;;;7.83;;
7383;SDS011;3733;47.994;8.820;2022-11-06T01:29:02;20.00;;;7.60;;
7383;SDS011;3733;47.994;8.820;2022-11-06T01:31:29;22.50;;;8.33;;
7383;SDS011;3733;47.994;8.820;2022-11-06T01:33:57;29.70;;;7.50;;
7383;SDS011;3733;47.994;8.820;2022-11-06T01:36:24;12.70;;;6.67;;
7383;SDS011;3733;47.994;8.820;2022-11-06T01:38:51;19.87;;;7.33;;
7383;SDS011;3733;47.994;8.820;2022-11-06T01:41:19;34.60;;;7.90;;
7383;SDS011;3733;47.994;8.820;2022-11-06T01:43:48;18.23;;;6.80;;
7383;SDS011;3733;47.994;8.820;2022-11-06T01:46:14;14.90;;;7.20;;
7383;SDS011;3733;47.994;8.820;2022-11-06T01:48:41;27.83;;;11.47;;
7383;SDS011;3733;47.994;8.820;2022-11-06T01:51:10;32.27;;;9.30;;
7383;SDS011;3733;47.994;8.820;2022-11-06T01:53:37;27.63;;;7.63;;
7383;SDS011;3733;47.994;8.820;2022-11-06T01:56:03;22.53;;;6.57;;
7383;SDS011;3733;47.994;8.820;2022-11-06T01:58:31;16.47;;;7.47;;
7383;SDS011;3733;47.994;8.820;2022-11-06T02:00:58;21.67;;;7.63;;
7383;SDS011;3733;47.994;8.820;2022-11-06T02:03:24;36.50;;;7.30;;
7383;SDS011;3733;47.994;8.820;2022-11-06T02:05:50;42.27;;;8.07;;
7383;SDS011;3733;47.994;8.820;2022-11-06T02:08:16;20.73;;;7.00;;
7383;SDS011;3733;47.994;8.820;2022-11-06T02:10:43;50.87;;;8.30;;
7383;SDS011;3733;47.994;8.820;2022-11-06T02:24:50;62.40;;;8.70;;
7383;SDS011;3733;47.994;8.820;2022-11-06T02:27:39;33.00;;;9.13;;
7383;SDS011;3733;47.994;8.820;2022-11-06T02:30:13;31.13;;;7.27;;
7383;SDS011;3733;47.994;8.820;2022-11-06T02:32:43;17.97;;;6.57;;
7383;SDS011;3733;47.994;8.820;2022-11-06T02:37:51;29.20;;;7.60;;
7383;SDS011;3733;47.994;8.820;2022-11-06T02:40:21;17.27;;;7.10;;
7383;SDS011;3733;47.994;8.820;2022-11-06T02:42:49;21.80;;;7.83;;
7383;SDS011;3733;47.994;8.820;2022-11-06T02:45:17;20.00;;;6.80;;
7383;SDS011;3733;47.994;8.820;2022-11-06T02:47:44;23.67;;;8.03;;
7383;SDS011;3733;47.994;8.820;2022-11-06T02:50:20;20.17;;;7.23;;
7383;SDS011;3733;47.994;8.820;2022-11-06T02:52:51;13.37;;;6.90;;
7383;SDS011;3733;47.994;8.820;2022-11-06T02:55:28;17.53;;;6.90;;
7383;SDS011;3733;47.994;8.820;2022-11-06T02:58:00;28.77;;;6.60;;
7383;SDS011;3733;47.994;8.820;2022-11-06T03:00:33;37.37;;;8.07;;
7383;SDS011;3733;47.994;8.820;2022-11-06T03:03:00;19.63;;;8.33;;
7383;SDS011;3733;47.994;8.820;2022-11-06T03:05:46;18.53;;;6.33;;
7383;SDS011;3733;47.994;8.820;2022-11-06T03:11:37;32.37;;;7.47;;
7383;SDS011;3733;47.994;8.820;2022-11-06T03:16:19;15.07;;;7.10;;
7383;SDS011;3733;47.994;8.820;2022-11-06T03:19:01;27.10;;;7.50;;
7383;SDS011;3733;47.994;8.820;2022-11-06T03:24:09;27.57;;;7.50;;
7383;SDS011;3733;47.994;8.820;2022-11-06T03:26:42;38.53;;;8.10;;
7383;SDS011;3733;47.994;8.820;2022-11-06T03:29:13;19.90;;;7.20;;
7383;SDS011;3733;47.994;8.820;2022-11-06T03:32:07;12.10;;;5.83;;
7383;SDS011;3733;47.994;8.820;2022-11-06T03:34:35;23.40;;;7.73;;
7383;SDS011;3733;47.994;8.820;2022-11-06T03:37:12;15.13;;;6.07;;
7383;SDS011;3733;47.994;8.820;2022-11-06T03:39:47;21.90;;;5.80;;
7383;SDS011;3733;47.994;8.820;2022-11-06T03:42:20;35.57;;;6.50;;
7383;SDS011;3733;47.994;8.820;2022-11-06T03:44:50;33.53;;;6.40;;
7383;SDS011;3733;47.994;8.820;2022-11-06T03:47:23;32.03;;;6.50;;
7383;SDS011;3733;47.994;8.820;2022-11-06T03:49:55;18.17;;;6.63;;
7383;SDS011;3733;47.994;8.820;2022-11-06T03:52:48;15.47;;;4.90;;
7383;SDS011;3733;47.994;8.820;2022-11-06T03:55:20;22.10;;;6.70;;
7383;SDS011;3733;47.994;8.820;2022-11-06T03:57:52;16.33;;;5.20;;
7383;SDS011;3733;47.994;8.820;2022-11-06T04:00:20;19.90;;;5.70;;
7383;SDS011;3733;47.994;8.820;2022-11-06T04:02:50;16.30;;;5.23;;
7383;SDS011;3733;47.994;8.820;2022-11-06T04:05:33;10.23;;;5.13;;
7383;SDS011;3733;47.994;8.820;2022-11-06T04:08:03;11.90;;;5.30;;
7383;SDS011;3733;47.994;8.820;2022-11-06T04:10:49;18.00;;;4.60;;
7383;SDS011;3733;47.994;8.820;2022-11-06T04:13:37;16.10;;;5.20;;
7383;SDS011;3733;47.994;8.820;2022-11-06T04:16:30;40.13;;;5.47;;
7383;SDS011;3733;47.994;8.820;2022-11-06T04:18:57;32.07;;;5.53;;
7383;SDS011;3733;47.994;8.820;2022-11-06T04:21:37;14.37;;;4.90;;
7383;SDS011;3733;47.994;8.820;2022-11-06T04:24:24;22.77;;;4.67;;
7383;SDS011;3733;47.994;8.820;2022-11-06T04:30:16;67.67;;;7.10;;
7383;SDS011;3733;47.994;8.820;2022-11-06T04:43:06;12.87;;;4.40;;
7383;SDS011;3733;47.994;8.820;2022-11-06T04:45:38;20.83;;;4.60;;
7383;SDS011;3733;47.994;8.820;2022-11-06T04:48:07;17.23;;;4.20;;
7383;SDS011;3733;47.994;8.820;2022-11-06T04:50:38;16.13;;;4.70;;
7383;SDS011;3733;47.994;8.820;2022-11-06T04:53:12;17.20;;;5.00;;
7383;SDS011;3733;47.994;8.820;2022-11-06T04:56:12;40.10;;;5.07;;
7383;SDS011;3733;47.994;8.820;2022-11-06T04:58:34;12.63;;;4.03;;
7383;SDS011;3733;47.994;8.820;2022-11-06T05:00:59;21.10;;;5.53;;
7383;SDS011;3733;47.994;8.820;2022-11-06T05:03:25;15.17;;;4.37;;
7383;SDS011;3733;47.994;8.820;2022-11-06T05:05:50;29.67;;;5.07;;
7383;SDS011;3733;47.994;8.820;2022-11-06T05:08:17;54.10;;;5.17;;
7383;SDS011;3733;47.994;8.820;2022-11-06T05:10:45;23.47;;;5.43;;
7383;SDS011;3733;47.994;8.820;2022-11-06T05:13:11;8.90;;;4.20;;
7383;SDS011;3733;47.994;8.820;2022-11-06T05:15:37;48.40;;;5.53;;
7383;SDS011;3733;47.994;8.820;2022-11-06T05:18:03;15.33;;;4.40;;
7383;SDS011;3733;47.994;8.820;2022-11-06T05:20:29;11.50;;;4.43;;
7383;SDS011;3733;47.994;8.820;2022-11-06T05:22:55;23.13;;;5.20;;
7383;SDS011;3733;47.994;8.820;2022-11-06T05:25:34;18.13;;;5.00;;
7383;SDS011;3733;47.994;8.820;2022-11-06T05:28:01;28.90;;;5.10;;
7383;SDS011;3733;47.994;8.820;2022-11-06T05:30:29;22.93;;;5.10;;
7383;SDS011;3733;47.994;8.820;2022-11-06T05:32:55;7.10;;;4.30;;
7383;SDS011;3733;47.994;8.820;2022-11-06T05:35:21;11.20;;;4.13;;
7383;SDS011;3733;47.994;8.820;2022-11-06T05:37:46;14.37;;;4.53;;
7383;SDS011;3733;47.994;8.820;2022-11-06T05:40:12;21.37;;;8.80;;
7383;SDS011;3733;47.994;8.820;2022-11-06T05:42:38;26.73;;;5.80;;
7383;SDS011;3733;47.994;8.820;2022-11-06T05:45:05;48.10;;;5.90;;
7383;SDS011;3733;47.994;8.820;2022-11-06T05:47:31;33.63;;;4.97;;
7383;SDS011;3733;47.994;8.820;2022-11-06T05:49:57;41.57;;;5.90;;
7383;SDS011;3733;47.994;8.820;2022-11-06T05:52:23;47.80;;;5.47;;
7383;SDS011;3733;47.994;8.820;2022-11-06T05:54:48;45.00;;;6.00;;
7383;SDS011;3733;47.994;8.820;2022-11-06T05:57:14;36.47;;;5.60;;
7383;SDS011;3733;47.994;8.820;2022-11-06T05:59:40;25.90;;;4.60;;
7383;SDS011;3733;47.994;8.820;2022-11-06T06:02:06;182.60;;;9.33;;
7383;SDS011;3733;47.994;8.820;2022-11-06T06:04:31;20.77;;;4.57;;
7383;SDS011;3733;47.994;8.820;2022-11-06T06:06:57;18.13;;;4.10;;
7383;SDS011;3733;47.994;8.820;2022-11-06T06:09:23;25.90;;;5.87;;
7383;SDS011;3733;47.994;8.820;2022-11-06T06:11:52;23.13;;;4.67;;
7383;SDS011;3733;47.994;8.820;2022-11-06T06:14:19;19.90;;;4.60;;
7383;SDS011;3733;47.994;8.820;2022-11-06T06:16:45;5.07;;;3.60;;
7383;SDS011;3733;47.994;8.820;2022-11-06T06:19:11;53.80;;;6.73;;
7383;SDS011;3733;47.994;8.820;2022-11-06T06:21:37;15.57;;;4.57;;
7383;SDS011;3733;47.994;8.820;2022-11-06T06:24:03;100.50;;;7.23;;
7383;SDS011;3733;47.994;8.820;2022-11-06T06:26:30;49.10;;;6.93;;
7383;SDS011;3733;47.994;8.820;2022-11-06T06:28:55;36.53;;;5.80;;
7383;SDS011;3733;47.994;8.820;2022-11-06T06:31:21;69.40;;;6.77;;
7383;SDS011;3733;47.994;8.820;2022-11-06T06:33:47;47.73;;;4.50;;
7383;SDS011;3733;47.994;8.820;2022-11-06T06:36:13;27.57;;;5.80;;
7383;SDS011;3733;47.994;8.820;2022-11-06T06:38:38;28.57;;;5.00;;
7383;SDS011;3733;47.994;8.820;2022-11-06T06:41:07;13.80;;;4.80;;
7383;SDS011;3733;47.994;8.820;2022-11-06T06:43:33;33.03;;;5.07;;
7383;SDS011;3733;47.994;8.820;2022-11-06T06:46:00;18.20;;;4.90;;
7383;SDS011;3733;47.994;8.820;2022-11-06T06:48:27;29.97;;;5.03;;
7383;SDS011;3733;47.994;8.820;2022-11-06T06:50:57;17.33;;;4.60;;
7383;SDS011;3733;47.994;8.820;2022-11-06T06:53:25;8.87;;;4.13;;
7383;SDS011;3733;47.994;8.820;2022-11-06T06:55:52;12.00;;;4.03;;
7383;SDS011;3733;47.994;8.820;2022-11-06T06:58:18;21.17;;;4.93;;
7383;SDS011;3733;47.994;8.820;2022-11-06T07:00:44;27.37;;;4.20;;
7383;SDS011;3733;47.994;8.820;2022-11-06T07:03:10;23.20;;;5.40;;
7383;SDS011;3733;47.994;8.820;2022-11-06T07:05:36;33.00;;;5.93;;
7383;SDS011;3733;47.994;8.820;2022-11-06T07:08:02;17.57;;;4.50;;
7383;SDS011;3733;47.994;8.820;2022-11-06T07:10:29;42.83;;;6.30;;
7383;SDS011;3733;47.994;8.820;2022-11-06T07:12:56;16.43;;;4.90;;
7383;SDS011;3733;47.994;8.820;2022-11-06T07:15:25;17.70;;;4.30;;
7383;SDS011;3733;47.994;8.820;2022-11-06T07:17:50;15.50;;;5.57;;
7383;SDS011;3733;47.994;8.820;2022-11-06T07:20:16;27.57;;;5.37;;
7383;SDS011;3733;47.994;8.820;2022-11-06T07:22:42;48.87;;;5.80;;
7383;SDS011;3733;47.994;8.820;2022-11-06T07:25:07;52.67;;;6.10;;
7383;SDS011;3733;47.994;8.820;2022-11-06T07:27:33;21.33;;;4.90;;
7383;SDS011;3733;47.994;8.820;2022-11-06T07:29:59;20.13;;;5.10;;
7383;SDS011;3733;47.994;8.820;2022-11-06T07:32:25;23.53;;;5.87;;
7383;SDS011;3733;47.994;8.820;2022-11-06T07:34:50;23.27;;;4.30;;
7383;SDS011;3733;47.994;8.820;2022-11-06T07:37:16;9.17;;;4.50;;
7383;SDS011;3733;47.994;8.820;2022-11-06T07:39:41;15.83;;;5.13;;
7383;SDS011;3733;47.994;8.820;2022-11-06T07:42:07;43.67;;;5.80;;
7383;SDS011;3733;47.994;8.820;2022-11-06T07:44:33;10.27;;;4.77;;
7383;SDS011;3733;47.994;8.820;2022-11-06T07:46:59;10.03;;;4.40;;
7383;SDS011;3733;47.994;8.820;2022-11-06T07:49:25;16.40;;;5.10;;
7383;SDS011;3733;47.994;8.820;2022-11-06T07:51:50;14.07;;;5.30;;
7383;SDS011;3733;47.994;8.820;2022-11-06T07:54:16;8.83;;;4.53;;
7383;SDS011;3733;47.994;8.820;2022-11-06T07:56:42;8.17;;;4.67;;
7383;SDS011;3733;47.994;8.820;2022-11-06T07:59:07;6.77;;;3.90;;
7383;SDS011;3733;47.994;8.820;2022-11-06T08:01:33;10.60;;;5.40;;
7383;SDS011;3733;47.994;8.820;2022-11-06T08:03:58;46.50;;;5.67;;
7383;SDS011;3733;47.994;8.820;2022-11-06T08:06:24;12.57;;;5.23;;
7383;SDS011;3733;47.994;8.820;2022-11-06T08:08:50;9.47;;;5.13;;
7383;SDS011;3733;47.994;8.820;2022-11-06T08:11:15;28.83;;;5.23;;
7383;SDS011;3733;47.994;8.820;2022-11-06T08:13:41;9.80;;;4.60;;
7383;SDS011;3733;47.994;8.820;2022-11-06T08:16:09;7.07;;;4.60;;
7383;SDS011;3733;47.994;8.820;2022-11-06T08:18:36;7.50;;;4.67;;
7383;SDS011;3733;47.994;8.820;2022-11-06T08:21:03;13.03;;;5.67;;
7383;SDS011;3733;47.994;8.820;2022-11-06T08:23:29;11.10;;;5.30;;
7383;SDS011;3733;47.994;8.820;2022-11-06T08:25:55;8.07;;;5.50;;
7383;SDS011;3733;47.994;8.820;2022-11-06T08:28:23;9.20;;;5.60;;
7383;SDS011;3733;47.994;8.820;2022-11-06T08:30:50;12.00;;;5.83;;
7383;SDS011;3733;47.994;8.820;2022-11-06T08:33:17;9.03;;;5.80;;
7383;SDS011;3733;47.994;8.820;2022-11-06T08:35:43;7.30;;;5.20;;
7383;SDS011;3733;47.994;8.820;2022-11-06T08:38:09;8.47;;;5.33;;
7383;SDS011;3733;47.994;8.820;2022-11-06T08:40:35;7.83;;;5.07;;
7383;SDS011;3733;47.994;8.820;2022-11-06T08:43:03;8.00;;;5.53;;
7383;SDS011;3733;47.994;8.820;2022-11-06T08:45:37;9.03;;;6.10;;
7383;SDS011;3733;47.994;8.820;2022-11-06T08:48:04;9.60;;;6.57;;
7383;SDS011;3733;47.994;8.820;2022-11-06T08:50:30;10.83;;;5.83;;
7383;SDS011;3733;47.994;8.820;2022-11-06T08:52:57;8.27;;;5.80;;
7383;SDS011;3733;47.994;8.820;2022-11-06T08:55:24;6.00;;;4.83;;
7383;SDS011;3733;47.994;8.820;2022-11-06T08:57:53;8.83;;;6.43;;
7383;SDS011;3733;47.994;8.820;2022-11-06T09:00:19;8.60;;;5.93;;
7383;SDS011;3733;47.994;8.820;2022-11-06T09:02:44;7.20;;;4.80;;
7383;SDS011;3733;47.994;8.820;2022-11-06T09:05:10;7.93;;;5.70;;
7383;SDS011;3733;47.994;8.820;2022-11-06T09:07:36;8.63;;;6.07;;
7383;SDS011;3733;47.994;8.820;2022-11-06T09:10:01;8.20;;;5.60;;
7383;SDS011;3733;47.994;8.820;2022-11-06T09:12:27;9.10;;;5.60;;
7383;SDS011;3733;47.994;8.820;2022-11-06T09:14:53;8.30;;;5.63;;
7383;SDS011;3733;47.994;8.820;2022-11-06T09:17:18;9.10;;;5.83;;
7383;SDS011;3733;47.994;8.820;2022-11-06T09:19:48;7.33;;;5.63;;
7383;SDS011;3733;47.994;8.820;2022-11-06T09:22:14;7.93;;;5.50;;
7383;SDS011;3733;47.994;8.820;2022-11-06T09:24:40;11.63;;;6.33;;
7383;SDS011;3733;47.994;8.820;2022-11-06T09:27:05;9.23;;;5.80;;
7383;SDS011;3733;47.994;8.820;2022-11-06T09:29:31;8.27;;;5.87;;
7383;SDS011;3733;47.994;8.820;2022-11-06T09:31:56;7.60;;;5.40;;
7383;SDS011;3733;47.994;8.820;2022-11-06T09:34:22;7.30;;;4.93;;
7383;SDS011;3733;47.994;8.820;2022-11-06T09:36:48;8.60;;;5.33;;
7383;SDS011;3733;47.994;8.820;2022-11-06T09:39:14;8.00;;;5.90;;
7383;SDS011;3733;47.994;8.820;2022-11-06T09:47:16;6.60;;;5.37;;
7383;SDS011;3733;47.994;8.820;2022-11-06T09:49:48;7.07;;;5.37;;
7383;SDS011;3733;47.994;8.820;2022-11-06T09:52:58;7.90;;;5.50;;
7383;SDS011;3733;47.994;8.820;2022-11-06T09:57:43;6.57;;;4.93;;
7383;SDS011;3733;47.994;8.820;2022-11-06T10:00:14;7.47;;;5.60;;
7383;SDS011;3733;47.994;8.820;2022-11-06T10:02:42;7.00;;;5.63;;
7383;SDS011;3733;47.994;8.820;2022-11-06T10:05:16;7.53;;;5.40;;
7383;SDS011;3733;47.994;8.820;2022-11-06T10:07:51;7.53;;;5.40;;
7383;SDS011;3733;47.994;8.820;2022-11-06T10:16:03;7.57;;;5.70;;
7383;SDS011;3733;47.994;8.820;2022-11-06T10:21:31;9.07;;;6.00;;
7383;SDS011;3733;47.994;8.820;2022-11-06T10:24:22;7.60;;;5.93;;
7383;SDS011;3733;47.994;8.820;2022-11-06T10:26:55;7.67;;;5.63;;
7383;SDS011;3733;47.994;8.820;2022-11-06T10:35:12;7.77;;;5.67;;
7383;SDS011;3733;47.994;8.820;2022-11-06T10:38:28;6.87;;;5.07;;
7383;SDS011;3733;47.994;8.820;2022-11-06T10:40:57;6.47;;;4.63;;
7383;SDS011;3733;47.994;8.820;2022-11-06T10:45:51;7.27;;;5.40;;
7383;SDS011;3733;47.994;8.820;2022-11-06T10:50:57;5.90;;;4.77;;
7383;SDS011;3733;47.994;8.820;2022-11-06T10:53:30;7.47;;;4.90;;
7383;SDS011;3733;47.994;8.820;2022-11-06T10:59:40;5.03;;;4.20;;
7383;SDS011;3733;47.994;8.820;2022-11-06T11:02:50;4.50;;;4.10;;
7383;SDS011;3733;47.994;8.820;2022-11-06T11:04:59;4.67;;;4.07;;
7383;SDS011;3733;47.994;8.820;2022-11-06T11:07:27;6.47;;;4.50;;
7383;SDS011;3733;47.994;8.820;2022-11-06T11:09:56;5.50;;;4.30;;
7383;SDS011;3733;47.994;8.820;2022-11-06T11:12:26;4.70;;;4.20;;
7383;SDS011;3733;47.994;8.820;2022-11-06T11:15:17;4.10;;;3.70;;
7383;SDS011;3733;47.994;8.820;2022-11-06T11:18:05;4.97;;;4.00;;
7383;SDS011;3733;47.994;8.820;2022-11-06T11:20:45;5.17;;;3.77;;
7383;SDS011;3733;47.994;8.820;2022-11-06T11:25:47;5.00;;;4.03;;
7383;SDS011;3733;47.994;8.820;2022-11-06T11:28:28;5.70;;;4.67;;
7383;SDS011;3733;47.994;8.820;2022-11-06T11:30:58;5.73;;;4.43;;
7383;SDS011;3733;47.994;8.820;2022-11-06T11:33:35;5.53;;;4.60;;
7383;SDS011;3733;47.994;8.820;2022-11-06T11:36:03;5.43;;;4.50;;
7383;SDS011;3733;47.994;8.820;2022-11-06T11:38:31;5.70;;;5.20;;
7383;SDS011;3733;47.994;8.820;2022-11-06T11:43:31;5.67;;;4.40;;
7383;SDS011;3733;47.994;8.820;2022-11-06T11:46:04;5.27;;;4.50;;
7383;SDS011;3733;47.994;8.820;2022-11-06T11:48:43;5.97;;;4.40;;
7383;SDS011;3733;47.994;8.820;2022-11-06T11:51:23;7.03;;;3.97;;
7383;SDS011;3733;47.994;8.820;2022-11-06T11:59:16;4.70;;;3.93;;
7383;SDS011;3733;47.994;8.820;2022-11-06T12:01:45;4.13;;;3.73;;
7383;SDS011;3733;47.994;8.820;2022-11-06T12:04:20;5.00;;;4.03;;
7383;SDS011;3733;47.994;8.820;2022-11-06T12:06:59;5.27;;;4.10;;
7383;SDS011;3733;47.994;8.820;2022-11-06T12:09:28;4.63;;;3.47;;
7383;SDS011;3733;47.994;8.820;2022-11-06T12:11:57;4.83;;;2.93;;
7383;SDS011;3733;47.994;8.820;2022-11-06T12:16:56;2.40;;;2.20;;
7383;SDS011;3733;47.994;8.820;2022-11-06T12:19:29;2.97;;;2.70;;
7383;SDS011;3733;47.994;8.820;2022-11-06T12:21:59;3.77;;;2.40;;
7383;SDS011;3733;47.994;8.820;2022-11-06T12:24:34;2.50;;;2.13;;
7383;SDS011;3733;47.994;8.820;2022-11-06T12:27:19;4.33;;;2.37;;
7383;SDS011;3733;47.994;8.820;2022-11-06T12:29:50;4.10;;;3.70;;
7383;SDS011;3733;47.994;8.820;2022-11-06T12:34:53;3.60;;;2.87;;
7383;SDS011;3733;47.994;8.820;2022-11-06T12:37:27;4.00;;;2.70;;
7383;SDS011;3733;47.994;8.820;2022-11-06T12:42:52;5.30;;;3.30;;
7383;SDS011;3733;47.994;8.820;2022-11-06T12:59:29;4.93;;;3.97;;
7383;SDS011;3733;47.994;8.820;2022-11-06T13:13:03;4.90;;;4.17;;
7383;SDS011;3733;47.994;8.820;2022-11-06T13:15:35;8.20;;;4.13;;
7383;SDS011;3733;47.994;8.820;2022-11-06T13:18:12;6.17;;;5.00;;
7383;SDS011;3733;47.994;8.820;2022-11-06T13:23:38;7.73;;;6.40;;
7383;SDS011;3733;47.994;8.820;2022-11-06T13:26:14;6.80;;;5.80;;
7383;SDS011;3733;47.994;8.820;2022-11-06T13:28:43;5.60;;;4.93;;
7383;SDS011;3733;47.994;8.820;2022-11-06T13:31:19;8.60;;;6.53;;
7383;SDS011;3733;47.994;8.820;2022-11-06T13:33:51;12.57;;;8.27;;
7383;SDS011;3733;47.994;8.820;2022-11-06T13:36:20;15.50;;;11.20;;
7383;SDS011;3733;47.994;8.820;2022-11-06T13:38:49;6.87;;;5.67;;
7383;SDS011;3733;47.994;8.820;2022-11-06T13:43:52;8.67;;;4.73;;
7383;SDS011;3733;47.994;8.820;2022-11-06T13:46:28;7.00;;;5.50;;
7383;SDS011;3733;47.994;8.820;2022-11-06T13:49:33;7.63;;;5.60;;
7383;SDS011;3733;47.994;8.820;2022-11-06T13:58:02;6.27;;;5.10;;
7383;SDS011;3733;47.994;8.820;2022-11-06T14:06:26;7.63;;;6.10;;
7383;SDS011;3733;47.994;8.820;2022-11-06T14:09:05;9.70;;;7.00;;
7383;SDS011;3733;47.994;8.820;2022-11-06T14:11:35;10.90;;;8.77;;
7383;SDS011;3733;47.994;8.820;2022-11-06T14:14:04;12.87;;;9.37;;
7383;SDS011;3733;47.994;8.820;2022-11-06T14:16:35;10.23;;;7.30;;
7383;SDS011;3733;47.994;8.820;2022-11-06T14:19:03;26.70;;;14.97;;
7383;SDS011;3733;47.994;8.820;2022-11-06T14:24:05;17.43;;;10.80;;
7383;SDS011;3733;47.994;8.820;2022-11-06T14:26:44;18.13;;;11.40;;
7383;SDS011;3733;47.994;8.820;2022-11-06T14:31:59;14.93;;;9.33;;
7383;SDS011;3733;47.994;8.820;2022-11-06T14:34:35;12.20;;;8.73;;
7383;SDS011;3733;47.994;8.820;2022-11-06T14:52:48;12.37;;;7.27;;
7383;SDS011;3733;47.994;8.820;2022-11-06T14:55:29;9.93;;;6.60;;
7383;SDS011;3733;47.994;8.820;2022-11-06T15:00:56;12.40;;;7.17;;
7383;SDS011;3733;47.994;8.820;2022-11-06T15:03:24;11.73;;;7.40;;
7383;SDS011;3733;47.994;8.820;2022-11-06T15:05:51;11.13;;;7.43;;
7383;SDS011;3733;47.994;8.820;2022-11-06T15:16:31;11.40;;;6.87;;
7383;SDS011;3733;47.994;8.820;2022-11-06T15:20:05;10.40;;;6.93;;
7383;SDS011;3733;47.994;8.820;2022-11-06T15:24:45;11.20;;;7.50;;
7383;SDS011;3733;47.994;8.820;2022-11-06T15:27:18;10.83;;;6.70;;
7383;SDS011;3733;47.994;8.820;2022-11-06T15:29:47;12.37;;;7.40;;
7383;SDS011;3733;47.994;8.820;2022-11-06T15:32:23;11.97;;;7.27;;
7383;SDS011;3733;47.994;8.820;2022-11-06T15:34:56;13.70;;;8.00;;
7383;SDS011;3733;47.994;8.820;2022-11-06T15:37:49;14.73;;;9.70;;
7383;SDS011;3733;47.994;8.820;2022-11-06T15:42:46;10.60;;;7.33;;
7383;SDS011;3733;47.994;8.820;2022-11-06T15:47:50;9.70;;;7.10;;
7383;SDS011;3733;47.994;8.820;2022-11-06T15:50:34;15.10;;;8.60;;
7383;SDS011;3733;47.994;8.820;2022-11-06T15:55:39;9.90;;;7.17;;
7383;SDS011;3733;47.994;8.820;2022-11-06T16:00:45;12.40;;;7.60;;
7383;SDS011;3733;47.994;8.820;2022-11-06T16:03:12;11.27;;;7.17;;
7383;SDS011;3733;47.994;8.820;2022-11-06T16:05:43;12.80;;;7.90;;
7383;SDS011;3733;47.994;8.820;2022-11-06T16:08:11;16.40;;;8.93;;
7383;SDS011;3733;47.994;8.820;2022-11-06T16:10:38;14.33;;;9.40;;
7383;SDS011;3733;47.994;8.820;2022-11-06T16:13:05;14.70;;;8.60;;
7383;SDS011;3733;47.994;8.820;2022-11-06T16:20:41;13.43;;;8.30;;
7383;SDS011;3733;47.994;8.820;2022-11-06T16:23:10;16.60;;;8.50;;
7383;SDS011;3733;47.994;8.820;2022-11-06T16:25:39;14.07;;;8.67;;
7383;SDS011;3733;47.994;8.820;2022-11-06T16:28:15;10.00;;;7.13;;
7383;SDS011;3733;47.994;8.820;2022-11-06T16:30:43;11.10;;;7.20;;
7383;SDS011;3733;47.994;8.820;2022-11-06T16:33:22;11.10;;;7.77;;
7383;SDS011;3733;47.994;8.820;2022-11-06T16:35:51;10.47;;;7.77;;
7383;SDS011;3733;47.994;8.820;2022-11-06T16:38:42;13.47;;;9.03;;
7383;SDS011;3733;47.994;8.820;2022-11-06T16:41:13;14.33;;;8.37;;
7383;SDS011;3733;47.994;8.820;2022-11-06T16:44:17;11.93;;;7.17;;
7383;SDS011;3733;47.994;8.820;2022-11-06T16:51:58;11.87;;;7.87;;
7383;SDS011;3733;47.994;8.820;2022-11-06T16:54:24;16.60;;;10.33;;
7383;SDS011;3733;47.994;8.820;2022-11-06T16:56:53;17.77;;;11.27;;
7383;SDS011;3733;47.994;8.820;2022-11-06T16:59:23;14.57;;;9.57;;
7383;SDS011;3733;47.994;8.820;2022-11-06T17:01:50;14.33;;;8.73;;
7383;SDS011;3733;47.994;8.820;2022-11-06T17:04:20;11.30;;;7.33;;
7383;SDS011;3733;47.994;8.820;2022-11-06T17:06:48;13.93;;;8.77;;
7383;SDS011;3733;47.994;8.820;2022-11-06T17:11:46;11.07;;;7.80;;
7383;SDS011;3733;47.994;8.820;2022-11-06T17:14:16;11.70;;;8.13;;
7383;SDS011;3733;47.994;8.820;2022-11-06T17:16:44;11.83;;;8.10;;
7383;SDS011;3733;47.994;8.820;2022-11-06T17:19:13;19.10;;;11.93;;
7383;SDS011;3733;47.994;8.820;2022-11-06T17:21:39;17.00;;;10.13;;
7383;SDS011;3733;47.994;8.820;2022-11-06T17:24:05;19.77;;;11.90;;
7383;SDS011;3733;47.994;8.820;2022-11-06T17:26:31;15.60;;;10.23;;
7383;SDS011;3733;47.994;8.820;2022-11-06T17:28:57;20.80;;;10.03;;
7383;SDS011;3733;47.994;8.820;2022-11-06T17:31:24;14.20;;;9.47;;
7383;SDS011;3733;47.994;8.820;2022-11-06T17:33:50;15.03;;;10.30;;
7383;SDS011;3733;47.994;8.820;2022-11-06T17:36:21;12.60;;;9.00;;
7383;SDS011;3733;47.994;8.820;2022-11-06T17:38:51;13.10;;;9.20;;
7383;SDS011;3733;47.994;8.820;2022-11-06T17:41:18;11.70;;;8.83;;
7383;SDS011;3733;47.994;8.820;2022-11-06T17:46:27;15.90;;;8.90;;
7383;SDS011;3733;47.994;8.820;2022-11-06T17:48:55;14.03;;;9.77;;
7383;SDS011;3733;47.994;8.820;2022-11-06T17:51:21;12.63;;;8.13;;
7383;SDS011;3733;47.994;8.820;2022-11-06T17:54:05;15.77;;;9.40;;
7383;SDS011;3733;47.994;8.820;2022-11-06T17:56:32;18.67;;;12.20;;
7383;SDS011;3733;47.994;8.820;2022-11-06T17:58:58;25.27;;;14.00;;
7383;SDS011;3733;47.994;8.820;2022-11-06T18:01:23;26.23;;;14.87;;
7383;SDS011;3733;47.994;8.820;2022-11-06T18:03:49;21.40;;;13.57;;
7383;SDS011;3733;47.994;8.820;2022-11-06T18:06:15;26.40;;;15.00;;
7383;SDS011;3733;47.994;8.820;2022-11-06T18:08:41;19.80;;;12.07;;
7383;SDS011;3733;47.994;8.820;2022-11-06T18:11:07;29.60;;;14.63;;
7383;SDS011;3733;47.994;8.820;2022-11-06T18:13:33;26.77;;;14.00;;
7383;SDS011;3733;47.994;8.820;2022-11-06T18:15:59;30.90;;;15.13;;
7383;SDS011;3733;47.994;8.820;2022-11-06T18:18:25;28.47;;;15.20;;
7383;SDS011;3733;47.994;8.820;2022-11-06T18:20:51;26.83;;;14.40;;
7383;SDS011;3733;47.994;8.820;2022-11-06T18:23:16;22.73;;;13.50;;
7383;SDS011;3733;47.994;8.820;2022-11-06T18:25:42;16.53;;;9.97;;
7383;SDS011;3733;47.994;8.820;2022-11-06T18:28:08;16.70;;;10.60;;
7383;SDS011;3733;47.994;8.820;2022-11-06T18:30:36;18.10;;;11.37;;